sensor_id;sensor_type;location;lat;lon;timestamp;P1;durP1;ratioP1;P2;durP2;ratioP2
74369;SDS011;71062;44.520;11.342;2023-12-20T00:01:35;10.85;;;4.60;;
74369;SDS011;71062;44.520;11.342;2023-12-20T00:04:02;10.73;;;4.40;;
74369;SDS011;71062;44.520;11.342;2023-12-20T00:06:27;9.55;;;3.42;;
74369;SDS011;71062;44.520;11.342;2023-12-20T00:08:53;10.20;;;4.07;;
74369;SDS011;71062;44.520;11.342;2023-12-20T00:11:18;6.95;;;3.63;;
74369;SDS011;71062;44.520;11.342;2023-12-20T00:13:44;9.75;;;4.07;;
74369;SDS011;71062;44.520;11.342;2023-12-20T00:16:10;12.15;;;4.53;;
74369;SDS011;71062;44.520;11.342;2023-12-20T00:18:36;7.85;;;3.97;;
74369;SDS011;71062;44.520;11.342;2023-12-20T00:21:01;8.10;;;3.90;;
74369;SDS011;71062;44.520;11.342;2023-12-20T00:23:27;10.32;;;4.07;;
74369;SDS011;71062;44.520;11.342;2023-12-20T00:25:53;11.27;;;3.90;;
74369;SDS011;71062;44.520;11.342;2023-12-20T00:28:18;12.13;;;4.05;;
74369;SDS011;71062;44.520;11.342;2023-12-20T00:30:44;8.35;;;4.05;;
74369;SDS011;71062;44.520;11.342;2023-12-20T00:33:10;9.93;;;3.90;;
74369;SDS011;71062;44.520;11.342;2023-12-20T00:35:35;7.25;;;3.67;;
74369;SDS011;71062;44.520;11.342;2023-12-20T00:38:01;9.80;;;3.90;;
74369;SDS011;71062;44.520;11.342;2023-12-20T00:40:26;8.02;;;3.88;;
74369;SDS011;71062;44.520;11.342;2023-12-20T00:42:52;10.00;;;4.25;;
74369;SDS011;71062;44.520;11.342;2023-12-20T00:45:17;9.63;;;3.90;;
74369;SDS011;71062;44.520;11.342;2023-12-20T00:47:45;8.50;;;3.60;;
74369;SDS011;71062;44.520;11.342;2023-12-20T00:50:14;11.85;;;3.60;;
74369;SDS011;71062;44.520;11.342;2023-12-20T00:52:58;7.65;;;3.80;;
74369;SDS011;71062;44.520;11.342;2023-12-20T00:55:27;8.07;;;3.25;;
74369;SDS011;71062;44.520;11.342;2023-12-20T00:58:00;11.85;;;4.13;;
74369;SDS011;71062;44.520;11.342;2023-12-20T01:00:27;10.88;;;4.20;;
74369;SDS011;71062;44.520;11.342;2023-12-20T01:02:52;8.30;;;3.80;;
74369;SDS011;71062;44.520;11.342;2023-12-20T01:05:18;9.55;;;4.07;;
74369;SDS011;71062;44.520;11.342;2023-12-20T01:07:44;9.68;;;4.25;;
74369;SDS011;71062;44.520;11.342;2023-12-20T01:10:10;9.13;;;4.43;;
74369;SDS011;71062;44.520;11.342;2023-12-20T01:12:36;12.20;;;4.15;;
74369;SDS011;71062;44.520;11.342;2023-12-20T01:15:02;9.55;;;4.07;;
74369;SDS011;71062;44.520;11.342;2023-12-20T01:17:27;9.98;;;3.83;;
74369;SDS011;71062;44.520;11.342;2023-12-20T01:19:53;13.60;;;4.13;;
74369;SDS011;71062;44.520;11.342;2023-12-20T01:22:18;12.93;;;4.28;;
74369;SDS011;71062;44.520;11.342;2023-12-20T01:24:44;10.70;;;4.47;;
74369;SDS011;71062;44.520;11.342;2023-12-20T01:27:10;11.93;;;4.10;;
74369;SDS011;71062;44.520;11.342;2023-12-20T01:29:35;9.05;;;3.53;;
74369;SDS011;71062;44.520;11.342;2023-12-20T01:32:01;10.05;;;4.05;;
74369;SDS011;71062;44.520;11.342;2023-12-20T01:34:26;10.95;;;4.07;;
74369;SDS011;71062;44.520;11.342;2023-12-20T01:36:52;7.13;;;3.75;;
74369;SDS011;71062;44.520;11.342;2023-12-20T01:39:18;12.05;;;4.03;;
74369;SDS011;71062;44.520;11.342;2023-12-20T01:41:43;6.53;;;3.63;;
74369;SDS011;71062;44.520;11.342;2023-12-20T01:44:09;9.93;;;4.57;;
74369;SDS011;71062;44.520;11.342;2023-12-20T01:46:43;10.40;;;4.40;;
74369;SDS011;71062;44.520;11.342;2023-12-20T01:49:10;7.88;;;4.18;;
74369;SDS011;71062;44.520;11.342;2023-12-20T01:51:36;7.75;;;3.70;;
74369;SDS011;71062;44.520;11.342;2023-12-20T01:54:02;11.30;;;3.85;;
74369;SDS011;71062;44.520;11.342;2023-12-20T01:56:29;11.27;;;4.53;;
74369;SDS011;71062;44.520;11.342;2023-12-20T01:58:57;9.95;;;4.72;;
74369;SDS011;71062;44.520;11.342;2023-12-20T02:01:24;9.60;;;4.55;;
74369;SDS011;71062;44.520;11.342;2023-12-20T02:03:50;11.18;;;4.97;;
74369;SDS011;71062;44.520;11.342;2023-12-20T02:06:18;10.68;;;4.53;;
74369;SDS011;71062;44.520;11.342;2023-12-20T02:08:47;9.45;;;4.25;;
74369;SDS011;71062;44.520;11.342;2023-12-20T02:11:14;8.95;;;4.15;;
74369;SDS011;71062;44.520;11.342;2023-12-20T02:13:40;8.57;;;3.90;;
74369;SDS011;71062;44.520;11.342;2023-12-20T02:16:06;8.10;;;4.35;;
74369;SDS011;71062;44.520;11.342;2023-12-20T02:18:32;10.40;;;4.10;;
74369;SDS011;71062;44.520;11.342;2023-12-20T02:20:58;9.10;;;4.30;;
74369;SDS011;71062;44.520;11.342;2023-12-20T02:23:24;7.25;;;3.45;;
74369;SDS011;71062;44.520;11.342;2023-12-20T02:25:49;10.40;;;3.72;;
74369;SDS011;71062;44.520;11.342;2023-12-20T02:28:15;17.35;;;4.10;;
74369;SDS011;71062;44.520;11.342;2023-12-20T02:30:41;14.43;;;4.20;;
74369;SDS011;71062;44.520;11.342;2023-12-20T02:33:10;27.67;;;4.80;;
74369;SDS011;71062;44.520;11.342;2023-12-20T02:35:46;18.95;;;4.57;;
74369;SDS011;71062;44.520;11.342;2023-12-20T02:38:12;17.38;;;4.47;;
74369;SDS011;71062;44.520;11.342;2023-12-20T02:40:38;16.13;;;3.88;;
74369;SDS011;71062;44.520;11.342;2023-12-20T02:43:04;8.48;;;3.67;;
74369;SDS011;71062;44.520;11.342;2023-12-20T02:45:29;9.45;;;3.65;;
74369;SDS011;71062;44.520;11.342;2023-12-20T02:47:55;9.13;;;3.67;;
74369;SDS011;71062;44.520;11.342;2023-12-20T02:50:21;7.38;;;3.42;;
74369;SDS011;71062;44.520;11.342;2023-12-20T02:52:47;9.15;;;3.60;;
74369;SDS011;71062;44.520;11.342;2023-12-20T02:55:12;8.73;;;3.55;;
74369;SDS011;71062;44.520;11.342;2023-12-20T02:57:38;6.43;;;3.22;;
74369;SDS011;71062;44.520;11.342;2023-12-20T03:00:10;9.32;;;3.97;;
74369;SDS011;71062;44.520;11.342;2023-12-20T03:02:36;10.10;;;4.10;;
74369;SDS011;71062;44.520;11.342;2023-12-20T03:05:02;7.93;;;3.55;;
74369;SDS011;71062;44.520;11.342;2023-12-20T03:07:28;7.25;;;3.83;;
74369;SDS011;71062;44.520;11.342;2023-12-20T03:09:54;8.27;;;3.90;;
74369;SDS011;71062;44.520;11.342;2023-12-20T03:12:19;9.30;;;4.18;;
74369;SDS011;71062;44.520;11.342;2023-12-20T03:14:45;8.00;;;3.70;;
74369;SDS011;71062;44.520;11.342;2023-12-20T03:17:11;8.93;;;3.55;;
74369;SDS011;71062;44.520;11.342;2023-12-20T03:19:36;10.75;;;4.18;;
74369;SDS011;71062;44.520;11.342;2023-12-20T03:22:02;7.80;;;3.97;;
74369;SDS011;71062;44.520;11.342;2023-12-20T03:24:28;7.30;;;3.42;;
74369;SDS011;71062;44.520;11.342;2023-12-20T03:26:54;9.15;;;4.15;;
74369;SDS011;71062;44.520;11.342;2023-12-20T03:29:19;9.85;;;3.75;;
74369;SDS011;71062;44.520;11.342;2023-12-20T03:31:45;7.85;;;3.25;;
74369;SDS011;71062;44.520;11.342;2023-12-20T03:34:11;7.05;;;3.88;;
74369;SDS011;71062;44.520;11.342;2023-12-20T03:36:37;7.90;;;4.30;;
74369;SDS011;71062;44.520;11.342;2023-12-20T03:39:02;6.32;;;3.63;;
74369;SDS011;71062;44.520;11.342;2023-12-20T03:41:28;7.10;;;3.30;;
74369;SDS011;71062;44.520;11.342;2023-12-20T03:43:54;8.98;;;3.90;;
74369;SDS011;71062;44.520;11.342;2023-12-20T03:46:19;8.38;;;3.13;;
74369;SDS011;71062;44.520;11.342;2023-12-20T03:48:45;6.43;;;3.28;;
74369;SDS011;71062;44.520;11.342;2023-12-20T03:51:11;5.38;;;2.72;;
74369;SDS011;71062;44.520;11.342;2023-12-20T03:53:36;6.47;;;3.20;;
74369;SDS011;71062;44.520;11.342;2023-12-20T03:56:02;6.13;;;2.47;;
74369;SDS011;71062;44.520;11.342;2023-12-20T03:58:29;6.60;;;2.67;;
74369;SDS011;71062;44.520;11.342;2023-12-20T04:00:54;7.88;;;3.15;;
74369;SDS011;71062;44.520;11.342;2023-12-20T04:03:20;6.13;;;2.38;;
74369;SDS011;71062;44.520;11.342;2023-12-20T04:05:45;5.50;;;2.75;;
74369;SDS011;71062;44.520;11.342;2023-12-20T04:08:11;7.80;;;2.88;;
74369;SDS011;71062;44.520;11.342;2023-12-20T04:10:37;9.25;;;3.25;;
74369;SDS011;71062;44.520;11.342;2023-12-20T04:13:02;8.10;;;3.00;;
74369;SDS011;71062;44.520;11.342;2023-12-20T04:15:28;6.30;;;3.08;;
74369;SDS011;71062;44.520;11.342;2023-12-20T04:17:54;6.15;;;3.03;;
74369;SDS011;71062;44.520;11.342;2023-12-20T04:20:20;6.38;;;2.92;;
74369;SDS011;71062;44.520;11.342;2023-12-20T04:22:45;6.57;;;3.30;;
74369;SDS011;71062;44.520;11.342;2023-12-20T04:25:11;7.50;;;3.25;;
74369;SDS011;71062;44.520;11.342;2023-12-20T04:27:36;8.35;;;3.22;;
74369;SDS011;71062;44.520;11.342;2023-12-20T04:30:02;7.80;;;3.47;;
74369;SDS011;71062;44.520;11.342;2023-12-20T04:32:29;7.93;;;3.20;;
74369;SDS011;71062;44.520;11.342;2023-12-20T04:34:54;6.80;;;3.15;;
74369;SDS011;71062;44.520;11.342;2023-12-20T04:37:20;8.07;;;3.65;;
74369;SDS011;71062;44.520;11.342;2023-12-20T04:39:45;7.38;;;3.13;;
74369;SDS011;71062;44.520;11.342;2023-12-20T04:42:11;6.78;;;3.25;;
74369;SDS011;71062;44.520;11.342;2023-12-20T04:44:37;5.57;;;2.60;;
74369;SDS011;71062;44.520;11.342;2023-12-20T04:47:03;7.70;;;3.67;;
74369;SDS011;71062;44.520;11.342;2023-12-20T04:49:30;6.90;;;3.15;;
74369;SDS011;71062;44.520;11.342;2023-12-20T04:51:56;8.40;;;3.65;;
74369;SDS011;71062;44.520;11.342;2023-12-20T04:54:21;7.38;;;3.47;;
74369;SDS011;71062;44.520;11.342;2023-12-20T04:56:47;7.32;;;3.35;;
74369;SDS011;71062;44.520;11.342;2023-12-20T04:59:13;7.68;;;3.40;;
74369;SDS011;71062;44.520;11.342;2023-12-20T05:01:38;9.23;;;3.80;;
74369;SDS011;71062;44.520;11.342;2023-12-20T05:04:04;7.38;;;3.53;;
74369;SDS011;71062;44.520;11.342;2023-12-20T05:06:30;7.47;;;3.42;;
74369;SDS011;71062;44.520;11.342;2023-12-20T05:08:56;8.48;;;4.13;;
74369;SDS011;71062;44.520;11.342;2023-12-20T05:11:21;6.80;;;3.45;;
74369;SDS011;71062;44.520;11.342;2023-12-20T05:13:47;9.55;;;3.40;;
74369;SDS011;71062;44.520;11.342;2023-12-20T05:16:13;6.22;;;2.92;;
74369;SDS011;71062;44.520;11.342;2023-12-20T05:18:45;6.88;;;3.40;;
74369;SDS011;71062;44.520;11.342;2023-12-20T05:21:11;7.00;;;3.78;;
74369;SDS011;71062;44.520;11.342;2023-12-20T05:23:37;6.53;;;3.60;;
74369;SDS011;71062;44.520;11.342;2023-12-20T05:26:03;7.78;;;3.67;;
74369;SDS011;71062;44.520;11.342;2023-12-20T05:28:28;6.20;;;3.10;;
74369;SDS011;71062;44.520;11.342;2023-12-20T05:30:54;8.70;;;3.60;;
74369;SDS011;71062;44.520;11.342;2023-12-20T05:33:20;6.75;;;3.53;;
74369;SDS011;71062;44.520;11.342;2023-12-20T05:35:45;6.20;;;3.85;;
74369;SDS011;71062;44.520;11.342;2023-12-20T05:38:11;8.57;;;3.67;;
74369;SDS011;71062;44.520;11.342;2023-12-20T05:40:36;10.32;;;4.22;;
74369;SDS011;71062;44.520;11.342;2023-12-20T05:43:02;8.75;;;4.38;;
74369;SDS011;71062;44.520;11.342;2023-12-20T05:45:28;10.82;;;3.78;;
74369;SDS011;71062;44.520;11.342;2023-12-20T05:47:54;7.28;;;3.70;;
74369;SDS011;71062;44.520;11.342;2023-12-20T05:50:20;9.75;;;4.18;;
74369;SDS011;71062;44.520;11.342;2023-12-20T05:52:46;8.70;;;3.97;;
74369;SDS011;71062;44.520;11.342;2023-12-20T05:55:12;10.20;;;3.88;;
74369;SDS011;71062;44.520;11.342;2023-12-20T05:57:38;10.75;;;3.42;;
74369;SDS011;71062;44.520;11.342;2023-12-20T06:00:04;7.78;;;3.55;;
74369;SDS011;71062;44.520;11.342;2023-12-20T06:02:38;10.15;;;3.70;;
74369;SDS011;71062;44.520;11.342;2023-12-20T06:05:05;9.00;;;3.85;;
74369;SDS011;71062;44.520;11.342;2023-12-20T06:07:30;8.30;;;4.07;;
74369;SDS011;71062;44.520;11.342;2023-12-20T06:09:56;7.00;;;3.30;;
74369;SDS011;71062;44.520;11.342;2023-12-20T06:12:22;6.95;;;3.17;;
74369;SDS011;71062;44.520;11.342;2023-12-20T06:14:47;6.35;;;3.47;;
74369;SDS011;71062;44.520;11.342;2023-12-20T06:17:13;9.63;;;3.88;;
74369;SDS011;71062;44.520;11.342;2023-12-20T06:19:38;5.93;;;3.00;;
74369;SDS011;71062;44.520;11.342;2023-12-20T06:22:04;7.45;;;2.92;;
74369;SDS011;71062;44.520;11.342;2023-12-20T06:24:30;8.07;;;3.58;;
74369;SDS011;71062;44.520;11.342;2023-12-20T06:26:55;5.57;;;3.00;;
74369;SDS011;71062;44.520;11.342;2023-12-20T06:29:21;7.38;;;3.30;;
74369;SDS011;71062;44.520;11.342;2023-12-20T06:31:46;9.77;;;3.63;;
74369;SDS011;71062;44.520;11.342;2023-12-20T06:34:12;8.55;;;3.30;;
74369;SDS011;71062;44.520;11.342;2023-12-20T06:36:38;5.50;;;2.72;;
74369;SDS011;71062;44.520;11.342;2023-12-20T06:39:03;7.50;;;3.00;;
74369;SDS011;71062;44.520;11.342;2023-12-20T06:41:30;7.05;;;3.20;;
74369;SDS011;71062;44.520;11.342;2023-12-20T06:43:55;7.50;;;3.50;;
74369;SDS011;71062;44.520;11.342;2023-12-20T06:46:21;7.15;;;3.22;;
74369;SDS011;71062;44.520;11.342;2023-12-20T06:48:47;9.32;;;3.58;;
74369;SDS011;71062;44.520;11.342;2023-12-20T06:51:14;9.77;;;3.85;;
74369;SDS011;71062;44.520;11.342;2023-12-20T06:53:41;5.10;;;2.55;;
74369;SDS011;71062;44.520;11.342;2023-12-20T06:56:07;7.88;;;2.70;;
74369;SDS011;71062;44.520;11.342;2023-12-20T06:58:34;8.35;;;2.72;;
74369;SDS011;71062;44.520;11.342;2023-12-20T07:01:00;8.88;;;3.15;;
74369;SDS011;71062;44.520;11.342;2023-12-20T07:03:25;7.00;;;3.05;;
74369;SDS011;71062;44.520;11.342;2023-12-20T07:05:51;6.45;;;2.72;;
74369;SDS011;71062;44.520;11.342;2023-12-20T07:08:17;5.07;;;1.88;;
74369;SDS011;71062;44.520;11.342;2023-12-20T07:10:42;6.85;;;2.42;;
74369;SDS011;71062;44.520;11.342;2023-12-20T07:13:08;5.05;;;1.98;;
74369;SDS011;71062;44.520;11.342;2023-12-20T07:15:34;4.80;;;2.13;;
74369;SDS011;71062;44.520;11.342;2023-12-20T07:18:00;5.20;;;2.65;;
74369;SDS011;71062;44.520;11.342;2023-12-20T07:20:26;8.63;;;2.80;;
74369;SDS011;71062;44.520;11.342;2023-12-20T07:22:52;8.23;;;2.70;;
74369;SDS011;71062;44.520;11.342;2023-12-20T07:25:18;8.25;;;3.15;;
74369;SDS011;71062;44.520;11.342;2023-12-20T07:27:45;11.35;;;3.90;;
74369;SDS011;71062;44.520;11.342;2023-12-20T07:30:11;7.32;;;3.35;;
74369;SDS011;71062;44.520;11.342;2023-12-20T07:32:38;7.13;;;3.22;;
74369;SDS011;71062;44.520;11.342;2023-12-20T07:35:04;7.60;;;3.15;;
74369;SDS011;71062;44.520;11.342;2023-12-20T07:37:30;6.65;;;3.42;;
74369;SDS011;71062;44.520;11.342;2023-12-20T07:39:56;8.15;;;2.80;;
74369;SDS011;71062;44.520;11.342;2023-12-20T07:42:22;11.00;;;4.30;;
74369;SDS011;71062;44.520;11.342;2023-12-20T07:44:47;8.68;;;3.40;;
74369;SDS011;71062;44.520;11.342;2023-12-20T07:47:13;9.15;;;3.40;;
74369;SDS011;71062;44.520;11.342;2023-12-20T07:49:42;9.05;;;3.45;;
74369;SDS011;71062;44.520;11.342;2023-12-20T07:52:07;9.43;;;3.75;;
74369;SDS011;71062;44.520;11.342;2023-12-20T07:54:33;7.85;;;3.75;;
74369;SDS011;71062;44.520;11.342;2023-12-20T07:56:59;9.85;;;3.70;;
74369;SDS011;71062;44.520;11.342;2023-12-20T07:59:24;9.18;;;4.28;;
74369;SDS011;71062;44.520;11.342;2023-12-20T08:01:49;6.68;;;3.38;;
74369;SDS011;71062;44.520;11.342;2023-12-20T08:04:15;9.55;;;3.58;;
74369;SDS011;71062;44.520;11.342;2023-12-20T08:06:41;12.95;;;3.42;;
74369;SDS011;71062;44.520;11.342;2023-12-20T08:09:06;8.73;;;3.10;;
74369;SDS011;71062;44.520;11.342;2023-12-20T08:11:32;9.35;;;3.85;;
74369;SDS011;71062;44.520;11.342;2023-12-20T08:13:57;13.35;;;5.88;;
74369;SDS011;71062;44.520;11.342;2023-12-20T08:16:23;10.70;;;6.28;;
74369;SDS011;71062;44.520;11.342;2023-12-20T08:18:48;14.52;;;5.65;;
74369;SDS011;71062;44.520;11.342;2023-12-20T08:21:15;12.60;;;5.25;;
74369;SDS011;71062;44.520;11.342;2023-12-20T08:23:41;13.55;;;5.20;;
74369;SDS011;71062;44.520;11.342;2023-12-20T08:26:07;15.50;;;5.57;;
74369;SDS011;71062;44.520;11.342;2023-12-20T08:28:33;15.38;;;4.78;;
74369;SDS011;71062;44.520;11.342;2023-12-20T08:30:59;14.95;;;5.50;;
74369;SDS011;71062;44.520;11.342;2023-12-20T08:33:25;11.27;;;4.55;;
74369;SDS011;71062;44.520;11.342;2023-12-20T08:35:51;12.63;;;4.20;;
74369;SDS011;71062;44.520;11.342;2023-12-20T08:38:16;10.10;;;5.10;;
74369;SDS011;71062;44.520;11.342;2023-12-20T08:40:43;14.18;;;4.88;;
74369;SDS011;71062;44.520;11.342;2023-12-20T08:43:09;13.63;;;5.07;;
74369;SDS011;71062;44.520;11.342;2023-12-20T08:45:34;9.35;;;4.57;;
74369;SDS011;71062;44.520;11.342;2023-12-20T08:48:00;13.18;;;4.85;;
74369;SDS011;71062;44.520;11.342;2023-12-20T08:50:25;12.95;;;3.88;;
74369;SDS011;71062;44.520;11.342;2023-12-20T08:52:51;11.45;;;4.25;;
74369;SDS011;71062;44.520;11.342;2023-12-20T08:55:16;10.05;;;3.95;;
74369;SDS011;71062;44.520;11.342;2023-12-20T08:57:43;12.20;;;5.20;;
74369;SDS011;71062;44.520;11.342;2023-12-20T09:00:09;8.77;;;3.38;;
74369;SDS011;71062;44.520;11.342;2023-12-20T09:02:35;8.90;;;4.60;;
74369;SDS011;71062;44.520;11.342;2023-12-20T09:05:01;16.23;;;5.68;;
74369;SDS011;71062;44.520;11.342;2023-12-20T09:07:27;14.02;;;5.10;;
74369;SDS011;71062;44.520;11.342;2023-12-20T09:09:55;11.32;;;5.50;;
74369;SDS011;71062;44.520;11.342;2023-12-20T09:12:21;11.88;;;7.03;;
74369;SDS011;71062;44.520;11.342;2023-12-20T09:14:48;7.85;;;4.68;;
74369;SDS011;71062;44.520;11.342;2023-12-20T09:17:14;16.20;;;8.82;;
74369;SDS011;71062;44.520;11.342;2023-12-20T09:19:41;18.83;;;7.60;;
74369;SDS011;71062;44.520;11.342;2023-12-20T09:22:09;8.20;;;4.55;;
74369;SDS011;71062;44.520;11.342;2023-12-20T09:24:35;16.45;;;7.28;;
74369;SDS011;71062;44.520;11.342;2023-12-20T09:27:01;28.65;;;10.48;;
74369;SDS011;71062;44.520;11.342;2023-12-20T09:29:27;19.85;;;9.35;;
74369;SDS011;71062;44.520;11.342;2023-12-20T09:31:53;20.63;;;10.80;;
74369;SDS011;71062;44.520;11.342;2023-12-20T09:34:19;17.17;;;9.38;;
74369;SDS011;71062;44.520;11.342;2023-12-20T09:36:44;16.83;;;8.90;;
74369;SDS011;71062;44.520;11.342;2023-12-20T09:39:18;19.42;;;10.07;;
74369;SDS011;71062;44.520;11.342;2023-12-20T09:41:56;24.17;;;9.85;;
74369;SDS011;71062;44.520;11.342;2023-12-20T09:44:26;21.55;;;8.95;;
74369;SDS011;71062;44.520;11.342;2023-12-20T09:46:52;15.73;;;8.43;;
74369;SDS011;71062;44.520;11.342;2023-12-20T09:49:19;17.10;;;9.10;;
74369;SDS011;71062;44.520;11.342;2023-12-20T09:51:46;16.52;;;8.68;;
74369;SDS011;71062;44.520;11.342;2023-12-20T09:54:16;15.90;;;7.53;;
74369;SDS011;71062;44.520;11.342;2023-12-20T09:56:45;17.98;;;8.85;;
74369;SDS011;71062;44.520;11.342;2023-12-20T09:59:11;23.70;;;9.50;;
74369;SDS011;71062;44.520;11.342;2023-12-20T10:01:38;18.20;;;9.00;;
74369;SDS011;71062;44.520;11.342;2023-12-20T10:04:05;16.17;;;7.75;;
74369;SDS011;71062;44.520;11.342;2023-12-20T10:06:37;17.98;;;8.48;;
74369;SDS011;71062;44.520;11.342;2023-12-20T10:09:10;22.58;;;9.30;;
74369;SDS011;71062;44.520;11.342;2023-12-20T10:11:56;17.58;;;8.35;;
74369;SDS011;71062;44.520;11.342;2023-12-20T10:14:23;21.92;;;7.93;;
74369;SDS011;71062;44.520;11.342;2023-12-20T10:16:52;20.45;;;8.88;;
74369;SDS011;71062;44.520;11.342;2023-12-20T10:19:19;16.05;;;8.60;;
74369;SDS011;71062;44.520;11.342;2023-12-20T10:21:59;18.65;;;8.65;;
74369;SDS011;71062;44.520;11.342;2023-12-20T10:24:25;16.00;;;7.93;;
74369;SDS011;71062;44.520;11.342;2023-12-20T10:27:03;19.85;;;8.00;;
74369;SDS011;71062;44.520;11.342;2023-12-20T10:29:36;18.45;;;7.57;;
74369;SDS011;71062;44.520;11.342;2023-12-20T10:35:03;19.02;;;8.30;;
74369;SDS011;71062;44.520;11.342;2023-12-20T10:37:29;16.70;;;8.55;;
74369;SDS011;71062;44.520;11.342;2023-12-20T10:39:55;12.70;;;6.70;;
74369;SDS011;71062;44.520;11.342;2023-12-20T10:42:22;20.05;;;9.75;;
74369;SDS011;71062;44.520;11.342;2023-12-20T10:44:51;12.82;;;6.70;;
74369;SDS011;71062;44.520;11.342;2023-12-20T10:47:19;19.30;;;8.43;;
74369;SDS011;71062;44.520;11.342;2023-12-20T10:49:45;19.23;;;8.85;;
74369;SDS011;71062;44.520;11.342;2023-12-20T10:52:11;19.13;;;8.23;;
74369;SDS011;71062;44.520;11.342;2023-12-20T10:54:41;15.13;;;8.35;;
74369;SDS011;71062;44.520;11.342;2023-12-20T10:57:07;16.65;;;8.40;;
74369;SDS011;71062;44.520;11.342;2023-12-20T10:59:38;19.00;;;8.18;;
74369;SDS011;71062;44.520;11.342;2023-12-20T11:02:05;19.35;;;8.48;;
74369;SDS011;71062;44.520;11.342;2023-12-20T11:10:59;16.83;;;8.10;;
74369;SDS011;71062;44.520;11.342;2023-12-20T11:13:10;17.80;;;8.23;;
74369;SDS011;71062;44.520;11.342;2023-12-20T11:15:42;17.70;;;7.95;;
74369;SDS011;71062;44.520;11.342;2023-12-20T11:18:08;14.77;;;7.35;;
74369;SDS011;71062;44.520;11.342;2023-12-20T11:20:38;16.65;;;8.40;;
74369;SDS011;71062;44.520;11.342;2023-12-20T11:23:05;21.77;;;9.35;;
74369;SDS011;71062;44.520;11.342;2023-12-20T11:25:47;16.15;;;8.55;;
74369;SDS011;71062;44.520;11.342;2023-12-20T11:28:16;15.95;;;8.57;;
74369;SDS011;71062;44.520;11.342;2023-12-20T11:30:53;20.52;;;9.82;;
74369;SDS011;71062;44.520;11.342;2023-12-20T11:33:23;18.05;;;10.07;;
74369;SDS011;71062;44.520;11.342;2023-12-20T11:35:50;18.73;;;9.55;;
74369;SDS011;71062;44.520;11.342;2023-12-20T11:38:17;23.25;;;11.50;;
74369;SDS011;71062;44.520;11.342;2023-12-20T11:40:47;21.58;;;11.05;;
74369;SDS011;71062;44.520;11.342;2023-12-20T11:46:19;24.90;;;12.90;;
74369;SDS011;71062;44.520;11.342;2023-12-20T11:48:45;25.10;;;13.85;;
74369;SDS011;71062;44.520;11.342;2023-12-20T11:51:12;29.30;;;14.27;;
74369;SDS011;71062;44.520;11.342;2023-12-20T11:53:39;28.38;;;14.15;;
74369;SDS011;71062;44.520;11.342;2023-12-20T11:56:05;24.85;;;11.55;;
74369;SDS011;71062;44.520;11.342;2023-12-20T11:58:32;23.77;;;11.57;;
74369;SDS011;71062;44.520;11.342;2023-12-20T12:00:58;26.92;;;15.02;;
74369;SDS011;71062;44.520;11.342;2023-12-20T12:03:24;24.52;;;13.50;;
74369;SDS011;71062;44.520;11.342;2023-12-20T12:05:50;27.48;;;14.90;;
74369;SDS011;71062;44.520;11.342;2023-12-20T12:08:16;30.55;;;14.82;;
74369;SDS011;71062;44.520;11.342;2023-12-20T12:10:42;31.10;;;15.25;;
74369;SDS011;71062;44.520;11.342;2023-12-20T12:13:09;27.05;;;14.57;;
74369;SDS011;71062;44.520;11.342;2023-12-20T12:15:35;28.80;;;15.05;;
74369;SDS011;71062;44.520;11.342;2023-12-20T12:18:01;24.75;;;14.23;;
74369;SDS011;71062;44.520;11.342;2023-12-20T12:20:27;25.75;;;14.05;;
74369;SDS011;71062;44.520;11.342;2023-12-20T12:25:24;22.85;;;11.60;;
74369;SDS011;71062;44.520;11.342;2023-12-20T12:27:50;26.33;;;13.43;;
74369;SDS011;71062;44.520;11.342;2023-12-20T12:30:16;27.38;;;12.57;;
74369;SDS011;71062;44.520;11.342;2023-12-20T12:32:43;27.70;;;14.13;;
74369;SDS011;71062;44.520;11.342;2023-12-20T12:35:10;23.70;;;11.98;;
74369;SDS011;71062;44.520;11.342;2023-12-20T12:37:37;28.35;;;14.10;;
74369;SDS011;71062;44.520;11.342;2023-12-20T12:40:05;28.77;;;15.18;;
74369;SDS011;71062;44.520;11.342;2023-12-20T12:42:38;29.20;;;15.68;;
74369;SDS011;71062;44.520;11.342;2023-12-20T12:45:06;27.88;;;14.38;;
74369;SDS011;71062;44.520;11.342;2023-12-20T12:47:32;30.80;;;15.13;;
74369;SDS011;71062;44.520;11.342;2023-12-20T12:49:58;28.23;;;13.45;;
74369;SDS011;71062;44.520;11.342;2023-12-20T12:52:24;26.85;;;14.70;;
74369;SDS011;71062;44.520;11.342;2023-12-20T12:54:51;27.40;;;13.20;;
74369;SDS011;71062;44.520;11.342;2023-12-20T12:57:17;27.98;;;12.55;;
74369;SDS011;71062;44.520;11.342;2023-12-20T12:59:44;27.92;;;13.40;;
74369;SDS011;71062;44.520;11.342;2023-12-20T13:02:13;25.17;;;12.40;;
74369;SDS011;71062;44.520;11.342;2023-12-20T13:04:39;22.50;;;12.52;;
74369;SDS011;71062;44.520;11.342;2023-12-20T13:09:32;28.88;;;13.55;;
74369;SDS011;71062;44.520;11.342;2023-12-20T13:11:58;29.38;;;13.05;;
74369;SDS011;71062;44.520;11.342;2023-12-20T13:14:24;27.38;;;13.55;;
74369;SDS011;71062;44.520;11.342;2023-12-20T13:16:50;26.63;;;13.75;;
74369;SDS011;71062;44.520;11.342;2023-12-20T13:19:15;24.88;;;11.98;;
74369;SDS011;71062;44.520;11.342;2023-12-20T13:21:41;27.17;;;12.80;;
74369;SDS011;71062;44.520;11.342;2023-12-20T13:24:07;29.75;;;12.57;;
74369;SDS011;71062;44.520;11.342;2023-12-20T13:26:32;26.08;;;11.98;;
74369;SDS011;71062;44.520;11.342;2023-12-20T13:28:58;23.58;;;12.20;;
74369;SDS011;71062;44.520;11.342;2023-12-20T13:31:23;22.65;;;10.35;;
74369;SDS011;71062;44.520;11.342;2023-12-20T13:33:49;22.77;;;11.23;;
74369;SDS011;71062;44.520;11.342;2023-12-20T13:36:14;26.48;;;11.70;;
74369;SDS011;71062;44.520;11.342;2023-12-20T13:38:40;23.92;;;12.02;;
74369;SDS011;71062;44.520;11.342;2023-12-20T13:41:06;23.52;;;12.65;;
74369;SDS011;71062;44.520;11.342;2023-12-20T13:43:32;27.95;;;14.18;;
74369;SDS011;71062;44.520;11.342;2023-12-20T13:45:58;30.40;;;12.52;;
74369;SDS011;71062;44.520;11.342;2023-12-20T13:48:24;29.42;;;13.77;;
74369;SDS011;71062;44.520;11.342;2023-12-20T13:50:50;23.83;;;12.27;;
74369;SDS011;71062;44.520;11.342;2023-12-20T13:53:15;26.13;;;12.90;;
74369;SDS011;71062;44.520;11.342;2023-12-20T13:55:41;28.35;;;14.35;;
74369;SDS011;71062;44.520;11.342;2023-12-20T13:58:07;27.05;;;14.18;;
74369;SDS011;71062;44.520;11.342;2023-12-20T14:00:32;23.60;;;11.50;;
74369;SDS011;71062;44.520;11.342;2023-12-20T14:02:58;25.08;;;13.38;;
74369;SDS011;71062;44.520;11.342;2023-12-20T14:05:23;25.20;;;12.80;;
74369;SDS011;71062;44.520;11.342;2023-12-20T14:07:49;26.67;;;13.50;;
74369;SDS011;71062;44.520;11.342;2023-12-20T14:10:15;25.75;;;12.38;;
74369;SDS011;71062;44.520;11.342;2023-12-20T14:12:41;26.58;;;13.20;;
74369;SDS011;71062;44.520;11.342;2023-12-20T14:15:06;27.50;;;12.68;;
74369;SDS011;71062;44.520;11.342;2023-12-20T14:17:39;24.70;;;12.88;;
74369;SDS011;71062;44.520;11.342;2023-12-20T14:20:07;22.88;;;13.38;;
74369;SDS011;71062;44.520;11.342;2023-12-20T14:22:33;28.48;;;13.45;;
74369;SDS011;71062;44.520;11.342;2023-12-20T14:25:00;25.73;;;12.95;;
74369;SDS011;71062;44.520;11.342;2023-12-20T14:27:26;23.42;;;12.77;;
74369;SDS011;71062;44.520;11.342;2023-12-20T14:29:53;22.65;;;12.75;;
74369;SDS011;71062;44.520;11.342;2023-12-20T14:32:19;24.27;;;11.07;;
74369;SDS011;71062;44.520;11.342;2023-12-20T14:34:44;25.58;;;12.50;;
74369;SDS011;71062;44.520;11.342;2023-12-20T14:37:10;26.65;;;12.23;;
74369;SDS011;71062;44.520;11.342;2023-12-20T14:39:36;22.13;;;12.45;;